createdAt,value
2018-12-20T00:01:29.950Z,32.90
2018-12-20T00:04:33.587Z,33.50
2018-12-20T00:07:37.232Z,35.00
2018-12-20T00:10:40.817Z,35.07
2018-12-20T00:13:44.584Z,33.80
2018-12-20T00:16:52.329Z,36.77
2018-12-20T00:19:56.001Z,33.13
2018-12-20T00:22:59.590Z,36.73
2018-12-20T00:26:03.343Z,31.96
2018-12-20T00:29:07.050Z,34.83
2018-12-20T00:32:10.654Z,36.50
2018-12-20T00:35:14.295Z,36.95
2018-12-20T00:38:17.777Z,38.00
2018-12-20T00:41:21.504Z,34.23
2018-12-20T00:44:25.201Z,37.07
2018-12-20T00:47:28.738Z,36.90
2018-12-20T00:50:32.483Z,34.48
2018-12-20T00:53:36.158Z,36.77
2018-12-20T00:56:39.803Z,35.40
2018-12-20T00:59:43.500Z,34.85
2018-12-20T01:02:47.364Z,37.07
2018-12-20T01:05:53.328Z,35.20
2018-12-20T01:08:56.864Z,37.57
2018-12-20T01:12:00.466Z,35.43
2018-12-20T01:15:04.835Z,36.30
2018-12-20T01:18:08.423Z,34.17
2018-12-20T01:21:12.043Z,36.98
2018-12-20T01:24:15.613Z,38.77
2018-12-20T01:27:19.310Z,36.37
2018-12-20T01:30:23.030Z,38.87
2018-12-20T01:33:26.825Z,35.83
2018-12-20T01:36:30.322Z,36.50
2018-12-20T01:39:34.037Z,34.50
2018-12-20T01:42:37.870Z,37.80
2018-12-20T01:45:41.914Z,38.23
2018-12-20T01:48:45.389Z,39.20
2018-12-20T01:51:49.195Z,34.93
2018-12-20T01:54:53.155Z,38.30
2018-12-20T01:57:56.919Z,39.63
2018-12-20T02:01:00.499Z,33.92
2018-12-20T02:04:04.073Z,35.73
2018-12-20T02:07:07.626Z,36.75
2018-12-20T02:10:11.418Z,35.28
2018-12-20T02:13:15.049Z,35.80
2018-12-20T02:16:18.759Z,33.33
2018-12-20T02:19:22.349Z,41.93
2018-12-20T02:22:26.078Z,35.97
2018-12-20T02:25:29.679Z,39.60
2018-12-20T02:28:33.477Z,32.90
2018-12-20T02:31:37.089Z,38.63
2018-12-20T02:34:40.725Z,39.73
2018-12-20T02:37:44.524Z,33.77
2018-12-20T02:40:48.132Z,33.43
2018-12-20T02:43:51.743Z,35.60
2018-12-20T02:46:55.393Z,32.30
2018-12-20T02:49:59.060Z,37.83
2018-12-20T02:53:02.719Z,39.00
2018-12-20T02:56:06.155Z,36.50
2018-12-20T02:59:10.267Z,36.23
2018-12-20T03:02:14.049Z,39.77
2018-12-20T03:05:17.719Z,35.78
2018-12-20T03:08:21.400Z,36.60
2018-12-20T03:11:25.077Z,39.13
2018-12-20T03:14:28.964Z,43.45
2018-12-20T03:17:32.718Z,34.63
2018-12-20T03:20:36.545Z,36.57
2018-12-20T03:23:40.172Z,38.47
2018-12-20T03:26:43.762Z,36.20
2018-12-20T03:29:47.431Z,37.03
2018-12-20T03:32:50.993Z,42.30
2018-12-20T03:35:54.486Z,38.47
2018-12-20T03:38:58.712Z,42.72
2018-12-20T03:42:02.236Z,41.10
2018-12-20T03:45:06.139Z,36.50
2018-12-20T03:48:09.694Z,40.60
2018-12-20T03:51:13.494Z,41.55
2018-12-20T03:54:17.379Z,36.83
2018-12-20T03:57:21.040Z,42.10
2018-12-20T04:00:24.946Z,40.95
2018-12-20T04:03:28.781Z,37.93
2018-12-20T04:06:32.346Z,41.03
2018-12-20T04:09:35.826Z,33.80
2018-12-20T04:12:39.426Z,36.67
2018-12-20T04:15:43.124Z,38.70
2018-12-20T04:18:46.771Z,38.20
2018-12-20T04:21:50.363Z,34.43
2018-12-20T04:24:53.925Z,37.70
2018-12-20T04:27:57.574Z,37.47
2018-12-20T04:31:01.389Z,36.45
2018-12-20T04:34:05.080Z,35.40
2018-12-20T04:37:08.710Z,33.08
2018-12-20T04:40:12.336Z,40.48
2018-12-20T04:43:16.097Z,36.33
2018-12-20T04:46:19.686Z,39.90
2018-12-20T04:49:23.241Z,44.57
2018-12-20T04:52:26.941Z,35.37
2018-12-20T04:55:30.584Z,46.90
2018-12-20T04:58:34.092Z,40.50
2018-12-20T05:01:37.550Z,45.47
2018-12-20T05:04:41.207Z,37.00
2018-12-20T05:07:45.070Z,44.10
2018-12-20T05:10:48.758Z,39.80
2018-12-20T05:13:53.439Z,35.67
2018-12-20T05:16:57.186Z,39.67
2018-12-20T05:20:00.848Z,44.73
2018-12-20T05:23:04.822Z,42.78
2018-12-20T05:26:08.548Z,40.75
2018-12-20T05:29:12.114Z,41.77
2018-12-20T05:32:15.563Z,46.08
2018-12-20T05:35:19.227Z,40.17
2018-12-20T05:38:22.879Z,43.23
2018-12-20T05:41:26.571Z,40.23
2018-12-20T05:44:30.279Z,40.07
2018-12-20T05:47:34.213Z,46.20
2018-12-20T05:50:37.820Z,41.67
2018-12-20T05:53:41.374Z,42.60
2018-12-20T05:56:45.364Z,42.47
2018-12-20T05:59:49.233Z,38.50
2018-12-20T06:02:53.436Z,41.13
2018-12-20T06:05:57.158Z,39.67
2018-12-20T06:09:00.880Z,36.33
2018-12-20T06:12:04.732Z,38.43
2018-12-20T06:15:08.613Z,47.88
2018-12-20T06:18:12.147Z,43.75
2018-12-20T06:21:16.727Z,40.28
2018-12-20T06:24:20.342Z,40.50
2018-12-20T06:27:23.811Z,38.57
2018-12-20T06:30:27.321Z,36.50
2018-12-20T06:33:31.006Z,42.77
2018-12-20T06:36:34.493Z,42.83
2018-12-20T06:39:37.911Z,36.00
2018-12-20T06:42:41.415Z,41.67
2018-12-20T06:45:44.946Z,37.77
2018-12-20T06:48:48.438Z,46.10
2018-12-20T06:51:52.025Z,37.60
2018-12-20T06:54:55.538Z,38.93
2018-12-20T06:57:59.144Z,41.70
2018-12-20T07:01:02.676Z,42.73
2018-12-20T07:04:06.207Z,40.03
2018-12-20T07:07:09.706Z,38.67
2018-12-20T07:10:13.346Z,39.07
2018-12-20T07:13:16.900Z,40.63
2018-12-20T07:16:20.466Z,35.80
2018-12-20T07:19:24.092Z,36.17
2018-12-20T07:22:27.782Z,39.63
2018-12-20T07:25:31.212Z,41.13
2018-12-20T07:28:34.702Z,42.67
2018-12-20T07:31:38.196Z,36.17
2018-12-20T07:34:47.894Z,36.77
2018-12-20T07:37:47.151Z,33.45
2018-12-20T07:40:50.608Z,33.83
2018-12-20T07:43:54.167Z,35.20
2018-12-20T07:46:57.947Z,36.17
2018-12-20T07:50:01.480Z,29.37
2018-12-20T07:53:04.957Z,36.60
2018-12-20T07:56:08.425Z,36.33
2018-12-20T07:59:11.895Z,36.73
2018-12-20T08:02:15.490Z,40.20
2018-12-20T08:05:19.009Z,38.77
2018-12-20T08:08:22.570Z,38.17
2018-12-20T08:11:26.061Z,42.13
2018-12-20T08:14:29.510Z,34.07
2018-12-20T08:17:33.083Z,37.80
2018-12-20T08:20:36.706Z,38.00
2018-12-20T08:23:40.233Z,41.23
2018-12-20T08:26:43.801Z,34.27
2018-12-20T08:29:47.418Z,33.60
2018-12-20T08:32:50.923Z,32.80
2018-12-20T08:35:54.461Z,31.20
2018-12-20T08:38:58.051Z,38.33
2018-12-20T08:42:01.692Z,38.37
2018-12-20T08:45:05.678Z,35.60
2018-12-20T08:48:09.167Z,35.28
2018-12-20T08:51:12.650Z,31.37
2018-12-20T08:54:16.568Z,37.37
2018-12-20T08:57:20.026Z,29.60
2018-12-20T09:00:23.531Z,27.40
2018-12-20T09:03:26.977Z,34.47
2018-12-20T09:06:30.489Z,30.80
2018-12-20T09:09:34.529Z,29.40
2018-12-20T09:12:38.042Z,26.30
2018-12-20T09:15:41.517Z,33.00
2018-12-20T09:18:44.995Z,27.30
2018-12-20T09:21:48.557Z,28.80
2018-12-20T09:24:52.111Z,27.87
2018-12-20T09:27:55.630Z,25.93
2018-12-20T09:30:59.466Z,26.53
2018-12-20T09:34:02.982Z,23.53
2018-12-20T09:37:06.570Z,21.40
2018-12-20T09:40:10.194Z,22.95
2018-12-20T09:43:13.705Z,23.27
2018-12-20T09:46:17.286Z,24.77
2018-12-20T09:49:20.876Z,23.60
2018-12-20T09:52:24.462Z,21.80
2018-12-20T09:55:28.046Z,19.83
2018-12-20T09:58:31.626Z,14.90
2018-12-20T10:01:35.182Z,12.33
2018-12-20T10:04:38.710Z,14.57
2018-12-20T10:07:42.486Z,11.70
2018-12-20T10:10:46.083Z,11.43
2018-12-20T10:13:49.602Z,10.47
2018-12-20T10:16:53.521Z,10.93
2018-12-20T10:19:57.078Z,9.97
2018-12-20T10:23:00.553Z,10.03
2018-12-20T10:26:04.123Z,12.87
2018-12-20T10:29:07.647Z,9.73
2018-12-20T10:32:11.201Z,11.23
2018-12-20T10:35:14.700Z,7.40
2018-12-20T10:38:18.314Z,8.37
2018-12-20T10:41:21.831Z,8.27
2018-12-20T10:44:25.358Z,10.77
2018-12-20T10:47:29.787Z,8.95
2018-12-20T10:50:33.460Z,10.93
2018-12-20T10:53:37.046Z,9.00
2018-12-20T10:56:40.722Z,11.63
2018-12-20T10:59:44.293Z,12.67
2018-12-20T11:02:53.151Z,10.93
2018-12-20T11:06:01.544Z,12.60
2018-12-20T11:09:12.684Z,9.73
2018-12-20T11:12:20.467Z,9.70
2018-12-20T11:15:24.212Z,11.53
2018-12-20T11:18:27.842Z,14.93
2018-12-20T11:21:31.390Z,10.77
2018-12-20T11:24:35.938Z,11.87
2018-12-20T11:27:39.705Z,11.43
2018-12-20T11:30:43.242Z,10.80
2018-12-20T11:33:46.797Z,11.28
2018-12-20T11:36:50.300Z,8.90
2018-12-20T11:39:59.395Z,9.37
2018-12-20T11:42:59.680Z,10.60
2018-12-20T11:46:03.296Z,9.13
2018-12-20T11:49:06.953Z,10.82
2018-12-20T11:52:10.441Z,10.10
2018-12-20T11:55:13.970Z,11.43
2018-12-20T11:58:17.487Z,12.47
2018-12-20T12:01:21.111Z,11.47
2018-12-20T12:04:24.698Z,10.90
2018-12-20T12:07:28.282Z,9.93
2018-12-20T12:10:31.931Z,9.00
2018-12-20T12:13:35.585Z,8.90
2018-12-20T12:16:39.224Z,11.33
2018-12-20T12:19:42.869Z,8.60
2018-12-20T12:22:46.385Z,7.23
2018-12-20T12:25:49.984Z,7.90
2018-12-20T12:28:53.749Z,10.78
2018-12-20T12:31:57.215Z,9.97
2018-12-20T12:35:00.690Z,7.75
2018-12-20T12:38:04.265Z,7.45
2018-12-20T12:41:07.875Z,7.50
2018-12-20T12:44:11.370Z,7.60
2018-12-20T12:47:16.972Z,12.10
2018-12-20T12:50:20.490Z,6.20
2018-12-20T12:53:24.148Z,6.93
2018-12-20T12:56:27.643Z,9.10
2018-12-20T12:59:31.120Z,5.60
2018-12-20T13:02:34.614Z,4.43
2018-12-20T13:05:38.149Z,5.63
2018-12-20T13:08:41.702Z,5.30
2018-12-20T13:11:45.226Z,6.17
2018-12-20T13:14:48.762Z,5.93
2018-12-20T13:17:52.255Z,6.07
2018-12-20T13:20:55.826Z,3.73
2018-12-20T13:24:00.009Z,4.96
2018-12-20T13:27:05.640Z,5.40
2018-12-20T13:30:11.501Z,6.50
2018-12-20T13:33:15.095Z,5.97
2018-12-20T13:36:18.545Z,4.30
2018-12-20T13:39:22.081Z,4.50
2018-12-20T13:42:25.666Z,4.20
2018-12-20T13:45:29.949Z,9.13
2018-12-20T13:48:33.487Z,4.63
2018-12-20T13:51:37.016Z,4.57
2018-12-20T13:54:40.632Z,6.30
2018-12-20T13:57:44.310Z,5.08
2018-12-20T14:00:47.855Z,4.80
2018-12-20T14:03:51.329Z,4.80
2018-12-20T14:06:54.860Z,6.93
2018-12-20T14:09:58.359Z,5.47
2018-12-20T14:13:01.940Z,7.80
2018-12-20T14:16:05.558Z,4.90
2018-12-20T14:19:09.150Z,4.70
2018-12-20T14:22:12.754Z,4.73
2018-12-20T14:25:16.242Z,4.90
2018-12-20T14:28:19.742Z,5.80
2018-12-20T14:31:23.254Z,5.03
2018-12-20T14:34:26.690Z,4.63
2018-12-20T14:37:30.362Z,3.50
2018-12-20T14:40:33.898Z,4.50
2018-12-20T14:43:37.464Z,7.17
2018-12-20T14:46:41.025Z,6.43
2018-12-20T14:49:44.540Z,4.03
2018-12-20T14:52:48.111Z,3.80
2018-12-20T14:55:51.687Z,8.50
2018-12-20T14:58:55.251Z,4.63
2018-12-20T15:01:58.843Z,3.30
2018-12-20T15:05:02.380Z,7.15
2018-12-20T15:08:06.013Z,5.00
2018-12-20T15:11:09.501Z,4.93
2018-12-20T15:14:13.205Z,4.30
2018-12-20T15:17:16.795Z,5.30
2018-12-20T15:20:20.313Z,5.67
2018-12-20T15:23:23.803Z,4.70
2018-12-20T15:26:27.313Z,4.33
2018-12-20T15:29:30.844Z,3.73
2018-12-20T15:32:34.344Z,3.50
2018-12-20T15:35:38.021Z,6.93
2018-12-20T15:38:41.698Z,9.10
2018-12-20T15:41:45.253Z,5.30
2018-12-20T15:44:48.874Z,3.50
2018-12-20T15:47:52.345Z,5.83
2018-12-20T15:50:55.883Z,5.50
2018-12-20T15:59:32.990Z,3.83
2018-12-20T16:02:36.723Z,4.23
2018-12-20T16:05:40.279Z,7.63
2018-12-20T16:08:43.848Z,3.90
2018-12-20T16:11:47.585Z,3.95
2018-12-20T16:14:51.072Z,3.40
2018-12-20T16:17:54.633Z,4.77
2018-12-20T16:20:58.265Z,4.53
2018-12-20T16:24:01.760Z,6.08
2018-12-20T16:27:05.369Z,4.20
2018-12-20T16:30:10.996Z,5.17
2018-12-20T16:33:14.734Z,8.00
2018-12-20T16:36:18.304Z,7.85
2018-12-20T16:39:21.835Z,3.60
2018-12-20T16:42:25.425Z,5.57
2018-12-20T16:45:28.960Z,6.30
2018-12-20T16:48:32.473Z,5.75
2018-12-20T16:51:36.149Z,5.20
2018-12-20T16:54:39.749Z,5.83
2018-12-20T16:57:43.286Z,3.70
2018-12-20T17:00:46.922Z,4.67
2018-12-20T17:03:50.477Z,4.07
2018-12-20T17:06:54.254Z,4.80
2018-12-20T17:09:57.865Z,5.20
2018-12-20T17:13:01.479Z,4.57
2018-12-20T17:16:05.202Z,4.60
2018-12-20T17:19:08.712Z,4.50
2018-12-20T17:22:12.251Z,3.70
2018-12-20T17:25:15.907Z,5.75
2018-12-20T17:28:19.433Z,6.37
2018-12-20T17:31:22.927Z,4.70
2018-12-20T17:34:26.429Z,4.70
2018-12-20T17:37:30.729Z,6.35
2018-12-20T17:40:34.219Z,5.60
2018-12-20T17:43:37.722Z,7.12
2018-12-20T17:46:41.269Z,8.85
2018-12-20T17:49:44.832Z,4.67
2018-12-20T17:52:48.519Z,5.93
2018-12-20T17:55:52.013Z,7.33
2018-12-20T17:58:55.504Z,5.40
2018-12-20T18:01:59.059Z,7.53
2018-12-20T18:05:06.845Z,8.80
2018-12-20T18:08:08.084Z,5.33
2018-12-20T18:11:11.602Z,6.55
2018-12-20T18:14:15.067Z,5.28
2018-12-20T18:17:18.634Z,6.97
2018-12-20T18:20:22.098Z,7.67
2018-12-20T18:23:25.696Z,5.77
2018-12-20T18:26:29.383Z,6.50
2018-12-20T18:29:33.014Z,10.33
2018-12-20T18:32:36.583Z,13.03
2018-12-20T18:35:40.159Z,7.80
2018-12-20T18:38:43.749Z,7.30
2018-12-20T18:41:47.254Z,9.10
2018-12-20T18:44:50.859Z,8.37
2018-12-20T18:47:54.373Z,11.17
2018-12-20T18:50:57.841Z,9.70
2018-12-20T18:54:01.332Z,10.50
2018-12-20T18:57:04.853Z,14.03
2018-12-20T19:00:10.240Z,11.80
2018-12-20T19:03:13.725Z,8.33
2018-12-20T19:06:17.337Z,10.75
2018-12-20T19:09:20.849Z,8.80
2018-12-20T19:12:24.258Z,12.43
2018-12-20T19:15:27.718Z,11.60
2018-12-20T19:18:31.154Z,12.83
2018-12-20T19:21:34.715Z,15.30
2018-12-20T19:24:38.325Z,10.13
2018-12-20T19:27:41.869Z,12.17
2018-12-20T19:30:45.359Z,10.40
2018-12-20T19:33:48.854Z,10.20
2018-12-20T19:36:52.364Z,14.40
2018-12-20T19:40:01.197Z,10.20
2018-12-20T19:43:04.984Z,13.87
2018-12-20T19:46:08.475Z,13.47
2018-12-20T19:49:12.029Z,11.57
2018-12-20T19:52:15.581Z,12.23
2018-12-20T19:55:19.042Z,15.53
2018-12-20T19:58:22.539Z,17.00
2018-12-20T20:01:26.110Z,14.23
2018-12-20T20:04:29.642Z,12.83
2018-12-20T20:07:33.144Z,14.00
2018-12-20T20:10:36.713Z,16.30
2018-12-20T20:13:40.212Z,19.48
2018-12-20T20:16:50.772Z,19.67
2018-12-20T20:19:49.233Z,14.47
2018-12-20T20:22:52.908Z,16.47
2018-12-20T20:25:56.528Z,13.90
2018-12-20T20:29:00.003Z,15.53
2018-12-20T20:32:03.662Z,14.23
2018-12-20T20:35:07.698Z,18.67
2018-12-20T20:38:11.242Z,13.65
2018-12-20T20:41:14.848Z,11.67
2018-12-20T20:44:18.429Z,13.60
2018-12-20T20:47:22.182Z,12.87
2018-12-20T20:50:26.110Z,19.27
2018-12-20T20:53:29.674Z,13.70
2018-12-20T20:56:33.218Z,14.60
2018-12-20T20:59:36.785Z,14.13
2018-12-20T21:02:40.308Z,15.05
2018-12-20T21:05:43.864Z,12.87
2018-12-20T21:08:49.186Z,13.50
2018-12-20T21:11:52.655Z,14.60
2018-12-20T21:14:56.254Z,10.90
2018-12-20T21:17:59.895Z,9.90
2018-12-20T21:21:03.362Z,11.40
2018-12-20T21:24:07.071Z,11.35
2018-12-20T21:27:10.773Z,11.93
2018-12-20T21:30:14.308Z,13.03
2018-12-20T21:33:17.980Z,13.10
2018-12-20T21:36:21.514Z,12.97
2018-12-20T21:39:25.063Z,15.27
2018-12-20T21:42:28.707Z,11.00
2018-12-20T21:45:32.383Z,12.93
2018-12-20T21:48:35.897Z,16.57
2018-12-20T21:51:39.409Z,11.30
2018-12-20T21:54:43.042Z,15.30
2018-12-20T21:57:46.578Z,11.23
2018-12-20T22:00:50.149Z,12.90
2018-12-20T22:03:54.426Z,19.83
2018-12-20T22:06:57.923Z,14.47
2018-12-20T22:10:01.628Z,12.23
2018-12-20T22:13:05.137Z,11.93
2018-12-20T22:16:08.794Z,14.33
2018-12-20T22:19:12.444Z,14.70
2018-12-20T22:22:15.981Z,12.63
2018-12-20T22:25:19.893Z,18.57
2018-12-20T22:28:23.714Z,14.90
2018-12-20T22:31:27.357Z,10.63
2018-12-20T22:34:31.470Z,12.58
2018-12-20T22:37:34.994Z,13.77
2018-12-20T22:40:38.583Z,16.55
2018-12-20T22:43:42.077Z,13.40
2018-12-20T22:46:45.727Z,17.48
2018-12-20T22:49:49.387Z,14.77
2018-12-20T22:52:52.895Z,18.27
2018-12-20T22:55:56.456Z,16.70
2018-12-20T22:58:59.997Z,16.48
2018-12-20T23:02:03.736Z,23.75
2018-12-20T23:05:07.436Z,17.40
2018-12-20T23:08:10.975Z,16.87
2018-12-20T23:11:14.528Z,17.32
2018-12-20T23:14:18.223Z,20.30
2018-12-20T23:17:22.458Z,15.00
2018-12-20T23:20:26.176Z,21.73
2018-12-20T23:23:29.688Z,17.40
2018-12-20T23:26:33.226Z,15.17
2018-12-20T23:29:36.788Z,16.97
2018-12-20T23:32:40.272Z,20.27
2018-12-20T23:35:43.901Z,14.93
2018-12-20T23:38:47.451Z,17.63
2018-12-20T23:41:50.938Z,15.00
2018-12-20T23:44:54.871Z,12.50
2018-12-20T23:47:58.361Z,15.67
2018-12-20T23:51:02.807Z,19.85
2018-12-20T23:54:06.352Z,15.23
2018-12-20T23:57:09.956Z,16.93
